createdAt,value
2022-08-02T00:00:35.274Z,0.80
2022-08-02T00:03:02.864Z,2.35
2022-08-02T00:05:30.587Z,0.40
2022-08-02T00:07:58.178Z,1.17
2022-08-02T00:10:26.009Z,0.57
2022-08-02T00:12:53.976Z,0.68
2022-08-02T00:15:25.454Z,0.77
2022-08-02T00:17:53.247Z,0.70
2022-08-02T00:20:20.839Z,1.77
2022-08-02T00:22:48.498Z,1.02
2022-08-02T00:25:17.666Z,0.70
2022-08-02T00:27:45.263Z,1.08
2022-08-02T00:30:13.125Z,0.98
2022-08-02T00:32:40.848Z,2.72
2022-08-02T00:35:08.899Z,1.13
2022-08-02T00:37:39.969Z,0.90
2022-08-02T00:40:08.268Z,0.75
2022-08-02T00:42:36.035Z,0.73
2022-08-02T00:45:03.799Z,0.50
2022-08-02T00:47:31.504Z,0.63
2022-08-02T00:49:59.286Z,2.17
2022-08-02T00:52:26.900Z,0.70
2022-08-02T00:54:55.564Z,1.08
2022-08-02T00:57:23.269Z,1.00
2022-08-02T00:59:53.512Z,1.40
2022-08-02T01:02:21.356Z,2.70
2022-08-02T01:04:49.264Z,1.90
2022-08-02T01:07:16.956Z,1.63
2022-08-02T01:09:45.996Z,0.90
2022-08-02T01:12:14.489Z,0.90
2022-08-02T01:14:44.692Z,1.58
2022-08-02T01:17:19.000Z,1.00
2022-08-02T01:20:18.744Z,0.40
2022-08-02T01:23:02.924Z,1.60
2022-08-02T01:25:50.897Z,4.95
2022-08-02T01:28:41.660Z,2.85
2022-08-02T01:31:25.470Z,1.95
2022-08-02T01:34:05.552Z,0.80
2022-08-02T01:36:39.667Z,3.53
2022-08-02T01:39:12.203Z,4.55
2022-08-02T01:41:59.008Z,4.63
2022-08-02T01:44:28.341Z,1.75
2022-08-02T01:47:00.620Z,1.10
2022-08-02T01:49:30.011Z,7.68
2022-08-02T01:52:18.895Z,0.68
2022-08-02T01:54:46.981Z,1.75
2022-08-02T01:57:17.062Z,3.90
2022-08-02T01:59:46.466Z,1.00
2022-08-02T02:02:15.804Z,1.00
2022-08-02T02:04:45.626Z,2.60
2022-08-02T02:07:15.975Z,0.43
2022-08-02T02:09:50.078Z,1.67
2022-08-02T02:12:20.078Z,0.75
2022-08-02T02:14:51.694Z,8.15
2022-08-02T02:18:10.705Z,3.25
2022-08-02T02:20:21.330Z,0.20
2022-08-02T02:22:49.747Z,0.80
2022-08-02T02:25:32.956Z,2.80
2022-08-02T02:28:09.822Z,1.00
2022-08-02T02:30:40.437Z,1.02
2022-08-02T02:33:09.100Z,1.08
2022-08-02T02:35:38.707Z,0.63
2022-08-02T02:38:09.178Z,2.13
2022-08-02T02:40:40.971Z,1.42
2022-08-02T02:43:10.101Z,5.18
2022-08-02T02:45:39.548Z,0.68
2022-08-02T02:48:09.561Z,2.00
2022-08-02T02:53:07.030Z,3.13
2022-08-02T02:55:34.894Z,0.82
2022-08-02T02:58:03.135Z,0.93
2022-08-02T03:00:49.411Z,1.05
2022-08-02T03:03:19.567Z,1.00
2022-08-02T03:05:49.092Z,9.38
2022-08-02T03:08:16.946Z,2.58
2022-08-02T03:10:46.927Z,2.22
2022-08-02T03:13:15.353Z,0.47
2022-08-02T03:15:43.105Z,0.75
2022-08-02T03:18:10.791Z,1.58
2022-08-02T03:20:40.908Z,0.73
2022-08-02T03:23:08.453Z,0.70
2022-08-02T03:25:35.837Z,0.63
2022-08-02T03:28:03.993Z,2.05
2022-08-02T03:30:31.532Z,0.85
2022-08-02T03:32:58.918Z,0.45
2022-08-02T03:35:26.670Z,1.55
2022-08-02T03:37:56.710Z,0.95
2022-08-02T03:42:54.198Z,3.90
2022-08-02T03:47:50.046Z,4.10
2022-08-02T03:50:18.376Z,0.57
2022-08-02T03:52:46.739Z,2.08
2022-08-02T03:55:17.086Z,1.33
2022-08-02T03:57:45.186Z,2.03
2022-08-02T04:00:19.739Z,1.00
2022-08-02T04:02:47.437Z,0.82
2022-08-02T04:05:15.371Z,2.03
2022-08-02T04:08:02.459Z,0.93
2022-08-02T04:10:31.469Z,1.45
2022-08-02T04:12:59.285Z,2.80
2022-08-02T04:15:27.022Z,1.75
2022-08-02T04:17:59.399Z,0.93
2022-08-02T04:20:32.036Z,4.53
2022-08-02T04:23:03.330Z,1.58
2022-08-02T04:25:34.301Z,0.82
2022-08-02T04:28:17.214Z,4.78
2022-08-02T04:30:48.532Z,3.00
2022-08-02T04:33:16.868Z,0.75
2022-08-02T04:35:44.843Z,1.13
2022-08-02T04:38:15.256Z,0.68
2022-08-02T04:40:55.918Z,0.00
2022-08-02T04:43:25.975Z,1.20
2022-08-02T04:48:23.135Z,0.55
2022-08-02T04:50:50.853Z,1.13
2022-08-02T04:53:18.451Z,0.10
2022-08-02T04:55:46.589Z,0.08
2022-08-02T04:58:38.933Z,0.40
2022-08-02T05:01:03.131Z,0.13
2022-08-02T05:03:30.658Z,0.20
2022-08-02T05:05:58.551Z,0.22
2022-08-02T05:08:26.310Z,0.00
2022-08-02T05:10:54.001Z,0.30
2022-08-02T05:13:21.886Z,0.10
2022-08-02T05:15:50.674Z,0.15
2022-08-02T05:18:18.652Z,0.00
2022-08-02T05:20:46.453Z,0.32
2022-08-02T05:23:14.152Z,0.03
2022-08-02T05:25:41.993Z,0.10
2022-08-02T05:28:11.628Z,0.00
2022-08-02T05:35:36.211Z,0.03
2022-08-02T05:38:03.925Z,0.00
2022-08-02T05:40:31.478Z,0.08
2022-08-02T05:42:59.585Z,0.08
2022-08-02T05:45:27.308Z,0.10
2022-08-02T05:47:54.823Z,0.05
2022-08-02T05:50:24.326Z,0.10
2022-08-02T05:53:06.978Z,0.10
2022-08-02T06:00:42.943Z,0.40
2022-08-02T06:03:16.937Z,0.10
2022-08-02T06:05:56.934Z,0.28
2022-08-02T06:08:25.946Z,0.15
2022-08-02T06:11:01.457Z,0.30
2022-08-02T06:13:29.822Z,0.35
2022-08-02T06:15:59.698Z,0.10
2022-08-02T06:18:31.964Z,0.15
2022-08-02T06:22:29.692Z,0.10
2022-08-02T06:23:57.804Z,0.20
2022-08-02T06:26:28.739Z,0.30
2022-08-02T06:28:58.109Z,0.10
2022-08-02T06:31:25.799Z,0.17
2022-08-02T06:33:53.601Z,0.10
2022-08-02T06:36:55.208Z,0.35
2022-08-02T06:39:32.416Z,0.30
2022-08-02T06:42:06.928Z,0.35
2022-08-02T06:44:48.752Z,0.17
2022-08-02T06:47:19.543Z,0.32
2022-08-02T06:49:51.347Z,0.40
2022-08-02T06:52:25.680Z,0.10
2022-08-02T06:54:57.354Z,0.30
2022-08-02T06:57:25.228Z,0.40
2022-08-02T06:59:53.035Z,0.00
2022-08-02T07:02:22.057Z,0.10
2022-08-02T07:04:49.880Z,0.00
2022-08-02T07:07:17.582Z,0.32
2022-08-02T07:10:00.017Z,0.10
2022-08-02T07:12:30.757Z,0.17
2022-08-02T07:19:54.828Z,0.10
2022-08-02T07:22:23.546Z,0.20
2022-08-02T07:24:51.985Z,0.05
2022-08-02T07:27:22.826Z,0.00
2022-08-02T07:29:50.518Z,0.20
2022-08-02T07:32:20.143Z,0.10
2022-08-02T07:34:51.110Z,0.00
2022-08-02T07:37:53.238Z,0.00
2022-08-02T07:40:19.553Z,0.08
2022-08-02T07:42:48.418Z,0.00
2022-08-02T07:45:16.179Z,0.00
2022-08-02T07:47:44.938Z,0.10
2022-08-02T07:50:13.787Z,0.10
2022-08-02T07:52:41.798Z,0.10
2022-08-02T07:55:10.698Z,3.28
2022-08-02T07:57:43.851Z,0.30
2022-08-02T08:00:14.503Z,0.38
2022-08-02T08:02:43.148Z,0.65
2022-08-02T08:05:10.900Z,0.43
2022-08-02T08:07:39.485Z,0.00
2022-08-02T08:10:10.364Z,0.00
2022-08-02T08:12:37.927Z,0.08
2022-08-02T08:15:05.944Z,1.65
2022-08-02T08:17:36.902Z,0.17
2022-08-02T08:20:05.990Z,0.10
2022-08-02T08:22:33.840Z,0.45
2022-08-02T08:25:01.614Z,0.20
2022-08-02T08:27:29.327Z,0.10
2022-08-02T08:29:59.635Z,0.22
2022-08-02T08:32:29.810Z,0.55
2022-08-02T08:34:57.507Z,0.32
2022-08-02T08:37:25.291Z,0.13
2022-08-02T08:39:56.274Z,0.20
2022-08-02T08:42:31.375Z,0.10
2022-08-02T08:44:59.640Z,0.25
2022-08-02T08:47:36.280Z,0.00
2022-08-02T08:50:11.591Z,0.00
2022-08-02T08:52:55.138Z,0.10
2022-08-02T08:55:27.911Z,0.82
2022-08-02T08:57:56.001Z,0.00
2022-08-02T09:00:23.602Z,0.50
2022-08-02T09:02:51.234Z,0.20
2022-08-02T09:05:19.120Z,0.00
2022-08-02T09:07:53.907Z,0.00
2022-08-02T09:10:48.603Z,0.00
2022-08-02T09:13:31.370Z,0.10
2022-08-02T09:16:14.427Z,0.10
2022-08-02T09:18:48.668Z,0.20
2022-08-02T09:21:17.754Z,0.10
2022-08-02T09:23:53.066Z,0.20
2022-08-02T09:26:23.861Z,0.00
2022-08-02T09:29:02.056Z,0.10
2022-08-02T09:31:29.808Z,0.22
2022-08-02T09:33:59.168Z,0.25
2022-08-02T09:36:28.296Z,0.35
2022-08-02T09:39:04.511Z,0.25
2022-08-02T09:41:37.970Z,0.40
2022-08-02T09:44:07.203Z,0.10
2022-08-02T09:46:43.002Z,0.00
2022-08-02T09:49:18.279Z,0.00
2022-08-02T09:51:55.162Z,0.10
2022-08-02T09:54:28.895Z,0.10
2022-08-02T09:57:02.037Z,0.00
2022-08-02T09:59:30.143Z,0.22
2022-08-02T10:02:02.373Z,0.10
2022-08-02T10:04:34.336Z,0.10
2022-08-02T10:07:20.041Z,0.32
2022-08-02T10:09:49.741Z,0.10
2022-08-02T10:12:17.167Z,0.00
2022-08-02T10:14:46.092Z,0.00
2022-08-02T10:17:14.505Z,0.00
2022-08-02T10:20:00.717Z,0.22
2022-08-02T10:22:30.681Z,0.22
2022-08-02T10:24:58.610Z,0.13
2022-08-02T10:27:48.911Z,0.10
2022-08-02T10:30:24.507Z,0.00
2022-08-02T10:32:54.149Z,0.00
2022-08-02T10:35:25.981Z,0.00
2022-08-02T10:37:56.336Z,0.03
2022-08-02T10:40:24.374Z,0.32
2022-08-02T10:42:53.377Z,0.73
2022-08-02T10:45:23.114Z,0.50
2022-08-02T10:48:10.447Z,0.08
2022-08-02T10:50:47.463Z,0.98
2022-08-02T10:53:21.360Z,0.32
2022-08-02T10:55:49.938Z,0.05
2022-08-02T10:58:19.310Z,0.80
2022-08-02T11:00:46.980Z,0.00
2022-08-02T11:03:30.208Z,0.30
2022-08-02T11:06:09.164Z,0.17
2022-08-02T11:09:32.960Z,2.92
2022-08-02T11:12:09.659Z,0.00
2022-08-02T11:14:46.074Z,0.10
2022-08-02T11:17:19.583Z,0.15
2022-08-02T11:20:08.847Z,0.10
2022-08-02T11:22:36.959Z,0.10
2022-08-02T11:25:23.060Z,0.00
2022-08-02T11:28:08.840Z,0.30
2022-08-02T11:30:36.945Z,0.00
2022-08-02T11:33:04.725Z,1.30
2022-08-02T11:35:40.027Z,1.67
2022-08-02T11:38:21.292Z,0.10
2022-08-02T11:40:49.589Z,0.00
2022-08-02T11:43:31.708Z,0.20
2022-08-02T11:46:03.120Z,0.30
2022-08-02T11:48:40.992Z,0.00
2022-08-02T11:51:08.809Z,0.00
2022-08-02T11:53:57.718Z,0.00
2022-08-02T11:56:27.881Z,0.30
2022-08-02T11:59:14.429Z,0.00
2022-08-02T12:01:46.000Z,0.00
2022-08-02T12:04:17.323Z,0.22
2022-08-02T12:06:53.859Z,0.00
2022-08-02T12:11:51.965Z,0.10
2022-08-02T12:14:20.210Z,0.52
2022-08-02T12:17:07.710Z,0.10
2022-08-02T12:19:36.554Z,0.03
2022-08-02T12:22:18.188Z,0.10
2022-08-02T12:24:49.039Z,0.00
2022-08-02T12:27:38.116Z,0.15
2022-08-02T12:30:09.239Z,0.00
2022-08-02T12:32:37.260Z,0.15
2022-08-02T12:35:11.184Z,0.20
2022-08-02T12:37:41.081Z,2.03
2022-08-02T12:40:25.725Z,0.10
2022-08-02T12:43:00.009Z,0.00
2022-08-02T12:45:40.073Z,0.45
2022-08-02T12:48:09.385Z,0.85
2022-08-02T12:50:40.251Z,0.00
2022-08-02T12:53:08.185Z,0.20
2022-08-02T12:56:01.930Z,0.30
2022-08-02T12:58:28.872Z,0.00
2022-08-02T13:00:59.467Z,0.28
2022-08-02T13:04:10.899Z,0.20
2022-08-02T13:06:43.037Z,0.00
2022-08-02T13:09:16.330Z,0.00
2022-08-02T13:11:44.480Z,0.05
2022-08-02T13:14:14.150Z,0.45
2022-08-02T13:16:42.649Z,0.10
2022-08-02T13:19:10.536Z,0.90
2022-08-02T13:21:40.150Z,0.30
2022-08-02T13:24:38.218Z,0.57
2022-08-02T13:27:09.262Z,0.00
2022-08-02T13:29:38.450Z,1.33
2022-08-02T13:32:06.165Z,0.00
2022-08-02T13:34:34.061Z,0.15
2022-08-02T13:37:02.033Z,0.10
2022-08-02T13:39:29.901Z,0.00
2022-08-02T13:41:57.694Z,0.10
2022-08-02T13:44:25.401Z,0.20
2022-08-02T13:46:53.149Z,0.22
2022-08-02T13:49:21.986Z,0.00
2022-08-02T13:52:08.994Z,0.00
2022-08-02T13:54:37.426Z,0.10
2022-08-02T13:57:06.270Z,2.00
2022-08-02T13:59:56.093Z,0.00
2022-08-02T14:02:22.134Z,0.00
2022-08-02T14:04:49.857Z,0.10
2022-08-02T14:07:17.770Z,0.10
2022-08-02T14:09:45.641Z,0.70
2022-08-02T14:12:13.863Z,0.08
2022-08-02T14:14:41.852Z,0.40
2022-08-02T14:17:11.275Z,0.20
2022-08-02T14:19:39.842Z,0.10
2022-08-02T14:22:11.343Z,0.00
2022-08-02T14:24:40.235Z,0.30
2022-08-02T14:27:08.317Z,0.10
2022-08-02T14:29:36.177Z,0.35
2022-08-02T14:32:04.031Z,0.08
2022-08-02T14:34:32.226Z,0.00
2022-08-02T14:37:00.113Z,0.35
2022-08-02T14:39:27.947Z,0.00
2022-08-02T14:42:11.962Z,0.10
2022-08-02T14:44:39.899Z,0.00
2022-08-02T14:47:07.667Z,0.00
2022-08-02T14:49:38.262Z,0.10
2022-08-02T14:52:14.575Z,0.40
2022-08-02T14:54:43.499Z,0.10
2022-08-02T14:57:12.330Z,6.95
2022-08-02T14:59:42.365Z,0.17
2022-08-02T15:02:13.169Z,0.00
2022-08-02T15:04:42.744Z,1.02
2022-08-02T15:07:11.581Z,0.00
2022-08-02T15:09:39.970Z,0.00
2022-08-02T15:12:08.232Z,0.57
2022-08-02T15:14:36.285Z,0.20
2022-08-02T15:17:04.019Z,0.63
2022-08-02T15:19:56.704Z,0.95
2022-08-02T15:22:20.093Z,0.20
2022-08-02T15:24:48.267Z,0.43
2022-08-02T15:27:16.292Z,0.88
2022-08-02T15:29:45.787Z,0.73
2022-08-02T15:32:13.943Z,0.50
2022-08-02T15:34:41.873Z,0.55
2022-08-02T15:37:09.695Z,0.35
2022-08-02T15:39:37.567Z,0.25
2022-08-02T15:42:05.470Z,0.88
2022-08-02T15:44:33.253Z,0.28
2022-08-02T15:47:01.166Z,2.28
2022-08-02T15:49:29.141Z,0.13
2022-08-02T15:51:57.070Z,0.00
2022-08-02T15:54:27.542Z,0.00
2022-08-02T15:56:56.237Z,0.00
2022-08-02T15:59:24.066Z,0.57
2022-08-02T16:01:53.714Z,0.00
2022-08-02T16:04:24.548Z,0.00
2022-08-02T16:06:52.466Z,0.40
2022-08-02T16:09:20.350Z,0.40
2022-08-02T16:11:50.604Z,0.88
2022-08-02T16:14:18.392Z,0.10
2022-08-02T16:16:46.170Z,0.22
2022-08-02T16:19:38.779Z,0.25
2022-08-02T16:22:02.046Z,0.32
2022-08-02T16:24:30.417Z,1.52
2022-08-02T16:26:58.198Z,0.20
2022-08-02T16:29:26.060Z,0.47
2022-08-02T16:31:53.808Z,0.17
2022-08-02T16:34:21.609Z,0.40
2022-08-02T16:36:49.442Z,0.60
2022-08-02T16:39:17.304Z,1.98
2022-08-02T16:41:51.750Z,0.47
2022-08-02T16:44:29.006Z,0.22
2022-08-02T16:47:01.030Z,0.17
2022-08-02T16:50:06.050Z,0.30
2022-08-02T16:52:18.796Z,0.55
2022-08-02T16:54:49.797Z,0.40
2022-08-02T16:57:25.100Z,0.60
2022-08-02T17:00:12.677Z,0.22
2022-08-02T17:05:13.918Z,0.25
2022-08-02T17:08:16.336Z,1.15
2022-08-02T17:10:30.268Z,0.70
2022-08-02T17:12:58.379Z,0.50
2022-08-02T17:16:01.089Z,0.50
2022-08-02T17:18:27.458Z,0.10
2022-08-02T17:20:55.682Z,0.60
2022-08-02T17:23:23.266Z,0.68
2022-08-02T17:26:13.397Z,0.00
2022-08-02T17:28:56.592Z,0.00
2022-08-02T17:31:30.108Z,0.00
2022-08-02T17:34:05.393Z,0.00
2022-08-02T17:36:33.266Z,0.00
2022-08-02T17:39:00.961Z,0.00
2022-08-02T17:41:48.901Z,0.00
2022-08-02T17:44:37.318Z,0.00
2022-08-02T17:47:06.576Z,0.47
2022-08-02T17:49:37.152Z,0.38
2022-08-02T17:52:48.207Z,0.52
2022-08-02T17:55:03.459Z,0.55
2022-08-02T17:57:56.142Z,0.20
2022-08-02T18:00:20.402Z,0.17
2022-08-02T18:05:23.309Z,0.77
2022-08-02T18:08:07.404Z,1.52
2022-08-02T18:10:35.309Z,1.85
2022-08-02T18:13:05.437Z,2.13
2022-08-02T18:15:33.539Z,1.70
2022-08-02T18:18:01.380Z,2.25
2022-08-02T18:20:29.118Z,1.55
2022-08-02T18:22:58.784Z,1.15
2022-08-02T18:28:14.691Z,1.20
2022-08-02T18:30:42.998Z,6.47
2022-08-02T18:33:58.268Z,3.83
2022-08-02T18:35:58.718Z,1.92
2022-08-02T18:38:28.437Z,5.75
2022-08-02T18:43:25.690Z,5.72
2022-08-02T18:46:05.846Z,7.60
2022-08-02T18:48:48.108Z,6.03
2022-08-02T18:51:19.010Z,6.95
2022-08-02T18:56:40.237Z,6.13
2022-08-02T18:59:15.124Z,3.40
2022-08-02T19:01:50.657Z,4.43
2022-08-02T19:04:27.566Z,2.83
2022-08-02T19:06:55.629Z,4.10
2022-08-02T19:09:24.090Z,5.82
2022-08-02T19:11:55.318Z,5.18
2022-08-02T19:14:28.154Z,4.32
2022-08-02T19:17:11.655Z,2.53
2022-08-02T19:19:48.293Z,3.80
2022-08-02T19:22:20.400Z,3.05
2022-08-02T19:24:51.951Z,3.10
2022-08-02T19:27:26.072Z,4.10
2022-08-02T19:30:00.053Z,3.20
2022-08-02T19:32:41.531Z,2.88
2022-08-02T19:35:29.454Z,5.90
2022-08-02T19:38:09.460Z,8.00
2022-08-02T19:40:38.776Z,7.00
2022-08-02T19:44:21.937Z,8.75
2022-08-02T19:45:57.464Z,5.97
2022-08-02T19:48:27.169Z,4.53
2022-08-02T19:51:00.621Z,5.15
2022-08-02T19:53:46.891Z,9.45
2022-08-02T19:56:25.134Z,4.05
2022-08-02T19:58:54.386Z,2.85
2022-08-02T20:04:13.540Z,3.42
2022-08-02T20:06:45.323Z,2.75
2022-08-02T20:09:16.616Z,5.60
2022-08-02T20:11:45.358Z,3.90
2022-08-02T20:14:13.936Z,3.38
2022-08-02T20:16:41.907Z,5.43
2022-08-02T20:19:09.765Z,1.73
2022-08-02T20:21:42.754Z,3.17
2022-08-02T20:24:14.391Z,4.78
2022-08-02T20:26:47.067Z,5.57
2022-08-02T20:29:17.536Z,4.47
2022-08-02T20:32:06.638Z,2.13
2022-08-02T20:34:36.212Z,4.03
2022-08-02T20:38:00.219Z,4.68
2022-08-02T20:39:52.567Z,2.47
2022-08-02T20:42:22.999Z,2.25
2022-08-02T20:44:55.340Z,2.63
2022-08-02T20:47:27.766Z,3.03
2022-08-02T20:50:31.445Z,2.75
2022-08-02T20:53:03.972Z,3.00
2022-08-02T20:55:32.617Z,2.75
2022-08-02T20:58:04.671Z,2.88
2022-08-02T21:00:33.432Z,4.88
2022-08-02T21:03:02.549Z,3.38
2022-08-02T21:05:43.832Z,4.20
2022-08-02T21:08:21.403Z,1.95
2022-08-02T21:10:51.985Z,1.90
2022-08-02T21:13:27.308Z,2.00
2022-08-02T21:15:58.043Z,2.10
2022-08-02T21:18:40.264Z,3.10
2022-08-02T21:21:09.154Z,6.00
2022-08-02T21:23:37.958Z,3.33
2022-08-02T21:26:09.005Z,2.85
2022-08-02T21:28:44.165Z,4.05
2022-08-02T21:31:16.197Z,1.90
2022-08-02T21:33:57.986Z,1.33
2022-08-02T21:36:33.917Z,5.57
2022-08-02T21:39:05.828Z,1.88
2022-08-02T21:41:38.877Z,2.42
2022-08-02T21:44:13.614Z,1.88
2022-08-02T21:46:44.558Z,1.77
2022-08-02T21:49:13.239Z,2.25
2022-08-02T21:54:29.179Z,2.47
2022-08-02T21:56:59.593Z,2.05
2022-08-02T21:59:27.283Z,5.15
2022-08-02T22:01:56.850Z,2.35
2022-08-02T22:04:25.792Z,2.67
2022-08-02T22:06:54.879Z,1.52
2022-08-02T22:09:43.228Z,2.03
2022-08-02T22:12:12.716Z,2.35
2022-08-02T22:14:49.476Z,3.70
2022-08-02T22:17:51.622Z,3.60
2022-08-02T22:20:12.566Z,4.38
2022-08-02T22:22:40.285Z,7.78
2022-08-02T22:25:10.283Z,6.07
2022-08-02T22:28:15.898Z,6.80
2022-08-02T22:30:42.478Z,4.75
2022-08-02T22:33:33.000Z,3.28
2022-08-02T22:36:17.828Z,3.97
2022-08-02T22:38:46.213Z,6.85
2022-08-02T22:41:14.557Z,8.80
2022-08-02T22:43:42.923Z,3.63
2022-08-02T22:46:15.577Z,4.90
2022-08-02T22:48:44.753Z,2.30
2022-08-02T22:51:13.906Z,4.70
2022-08-02T22:53:44.818Z,2.83
2022-08-02T22:56:15.483Z,4.75
2022-08-02T22:58:57.100Z,1.88
2022-08-02T22:58:58.363Z,4.75
2022-08-02T22:59:03.543Z,2.30
2022-08-02T22:59:05.991Z,3.58
2022-08-02T23:01:33.506Z,2.83
2022-08-02T23:04:01.225Z,3.92
2022-08-02T23:06:29.080Z,5.22
2022-08-02T23:08:56.933Z,2.45
2022-08-02T23:11:24.587Z,5.45
2022-08-02T23:13:52.394Z,5.47
2022-08-02T23:16:39.613Z,5.95
2022-08-02T23:19:25.814Z,2.72
2022-08-02T23:22:02.273Z,4.93
2022-08-02T23:24:33.763Z,3.38
2022-08-02T23:27:01.591Z,2.88
2022-08-02T23:29:32.610Z,4.68
2022-08-02T23:32:02.998Z,5.50
2022-08-02T23:34:31.190Z,4.35
2022-08-02T23:36:58.973Z,5.82
2022-08-02T23:39:26.987Z,4.57
2022-08-02T23:41:56.049Z,3.38
2022-08-02T23:44:25.184Z,3.90
2022-08-02T23:46:52.939Z,6.03
2022-08-02T23:49:24.960Z,10.02
2022-08-02T23:51:52.794Z,4.82
2022-08-02T23:54:21.441Z,6.55
2022-08-02T23:56:50.192Z,5.55
2022-08-02T23:59:17.921Z,5.35
